ZKMVY NZAA-NZGB
Flight info
| Callsign | ZKMVY |
|---|---|
| Flight time | 0h 30m |
| Altitude | 9000 |
| Route | IDUGU1Q BOVRU Q136 DOSTU DCT |
| Aircraft | AEST/L-SDFGRY/S |
Departure
| Time | 2026-05-07 10:11 |
|---|---|
| Airport | Auckland International Airport (NZAA) |
Arrival
| Time | 2026-05-07 10:42 |
|---|---|
| Airport | Great Barrier Aerodrome (NZGB) |
| Time | Latitude | Longitude | Altitude | Speed | Heading |
|---|---|---|---|---|---|
| 2026-05-07 09:53 | -37.00335 | 174.80401 | 20 ft | 0 kts | 69° |
| 2026-05-07 09:59 | -37.00327 | 174.80427 | 20 ft | 2 kts | 73° |
| 2026-05-07 09:59 | -37.00327 | 174.80440 | 20 ft | 2 kts | 107° |
| 2026-05-07 09:59 | -37.00331 | 174.80451 | 20 ft | 0 kts | 138° |
| 2026-05-07 10:00 | -37.00350 | 174.80460 | 20 ft | 8 kts | 174° |
| 2026-05-07 10:00 | -37.00414 | 174.80404 | 20 ft | 12 kts | 239° |
| 2026-05-07 10:00 | -37.00445 | 174.80308 | 20 ft | 12 kts | 255° |
| 2026-05-07 10:00 | -37.00467 | 174.80217 | 20 ft | 10 kts | 248° |
| 2026-05-07 10:01 | -37.00493 | 174.80137 | 20 ft | 9 kts | 251° |
| 2026-05-07 10:01 | -37.00513 | 174.80058 | 20 ft | 11 kts | 252° |
| 2026-05-07 10:01 | -37.00538 | 174.79974 | 20 ft | 10 kts | 244° |
| 2026-05-07 10:01 | -37.00569 | 174.79902 | 20 ft | 9 kts | 243° |
| 2026-05-07 10:02 | -37.00589 | 174.79835 | 20 ft | 8 kts | 251° |
| 2026-05-07 10:02 | -37.00608 | 174.79769 | 20 ft | 8 kts | 251° |
| 2026-05-07 10:02 | -37.00635 | 174.79671 | 20 ft | 15 kts | 250° |
| 2026-05-07 10:02 | -37.00669 | 174.79545 | 20 ft | 15 kts | 252° |
| 2026-05-07 10:03 | -37.00703 | 174.79428 | 20 ft | 13 kts | 252° |
| 2026-05-07 10:03 | -37.00731 | 174.79321 | 20 ft | 12 kts | 249° |
| 2026-05-07 10:03 | -37.00758 | 174.79222 | 20 ft | 12 kts | 252° |
| 2026-05-07 10:03 | -37.00784 | 174.79131 | 20 ft | 10 kts | 243° |
| 2026-05-07 10:04 | -37.00849 | 174.79114 | 20 ft | 11 kts | 168° |
| 2026-05-07 10:04 | -37.00897 | 174.79044 | 20 ft | 12 kts | 252° |
| 2026-05-07 10:04 | -37.00922 | 174.78953 | 20 ft | 11 kts | 251° |
| 2026-05-07 10:04 | -37.00957 | 174.78824 | 20 ft | 22 kts | 250° |
| 2026-05-07 10:05 | -37.01009 | 174.78639 | 20 ft | 23 kts | 251° |
| 2026-05-07 10:05 | -37.01058 | 174.78461 | 21 ft | 21 kts | 251° |
| 2026-05-07 10:05 | -37.01103 | 174.78296 | 21 ft | 19 kts | 251° |
| 2026-05-07 10:05 | -37.01143 | 174.78151 | 21 ft | 16 kts | 252° |
| 2026-05-07 10:06 | -37.01181 | 174.78010 | 21 ft | 19 kts | 249° |
| 2026-05-07 10:06 | -37.01224 | 174.77856 | 21 ft | 18 kts | 251° |
| 2026-05-07 10:06 | -37.01290 | 174.77778 | 21 ft | 15 kts | 167° |
| 2026-05-07 10:06 | -37.01338 | 174.77798 | 21 ft | 0 kts | 163° |
| 2026-05-07 10:10 | -37.01339 | 174.77799 | 21 ft | 2 kts | 163° |
| 2026-05-07 10:10 | -37.01401 | 174.77835 | 21 ft | 13 kts | 128° |
| 2026-05-07 10:10 | -37.01374 | 174.78011 | 21 ft | 46 kts | 70° |
| 2026-05-07 10:10 | -37.01210 | 174.78601 | 26 ft | 87 kts | 70° |
| 2026-05-07 10:11 | -37.01040 | 174.79331 | 153 ft | 88 kts | 70° |
| 2026-05-07 10:11 | -37.00884 | 174.80117 | 362 ft | 97 kts | 71° |
| 2026-05-07 10:11 | -37.00715 | 174.80662 | 523 ft | 105 kts | 64° |
| 2026-05-07 10:11 | -37.00206 | 174.81743 | 938 ft | 106 kts | 53° |
| 2026-05-07 10:12 | -36.99942 | 174.82240 | 1165 ft | 102 kts | 55° |
| 2026-05-07 10:12 | -36.99600 | 174.83033 | 1489 ft | 103 kts | 56° |
| 2026-05-07 10:12 | -36.99261 | 174.83817 | 1820 ft | 106 kts | 51° |
| 2026-05-07 10:12 | -36.98862 | 174.84615 | 2115 ft | 106 kts | 45° |
| 2026-05-07 10:13 | -36.98429 | 174.85338 | 2443 ft | 105 kts | 45° |
| 2026-05-07 10:13 | -36.97958 | 174.86062 | 2693 ft | 108 kts | 44° |
| 2026-05-07 10:13 | -36.97514 | 174.86807 | 3016 ft | 106 kts | 44° |
| 2026-05-07 10:13 | -36.96979 | 174.87460 | 3268 ft | 109 kts | 26° |
| 2026-05-07 10:14 | -36.96311 | 174.87883 | 3583 ft | 104 kts | 18° |
| 2026-05-07 10:14 | -36.95637 | 174.88186 | 3832 ft | 107 kts | 14° |
| 2026-05-07 10:14 | -36.94914 | 174.88440 | 4077 ft | 107 kts | 8° |
| 2026-05-07 10:14 | -36.94183 | 174.88586 | 4341 ft | 107 kts | 5° |
| 2026-05-07 10:15 | -36.93425 | 174.88703 | 4570 ft | 111 kts | 359° |
| 2026-05-07 10:15 | -36.92675 | 174.88545 | 4878 ft | 103 kts | 335° |
| 2026-05-07 10:15 | -36.92066 | 174.88166 | 5275 ft | 95 kts | 330° |
| 2026-05-07 10:15 | -36.91477 | 174.87750 | 5547 ft | 100 kts | 330° |
| 2026-05-07 10:16 | -36.90865 | 174.87319 | 5842 ft | 102 kts | 330° |
| 2026-05-07 10:16 | -36.90272 | 174.86830 | 6120 ft | 104 kts | 333° |
| 2026-05-07 10:16 | -36.89613 | 174.86477 | 6423 ft | 102 kts | 336° |
| 2026-05-07 10:16 | -36.88950 | 174.86140 | 6689 ft | 104 kts | 336° |
| 2026-05-07 10:17 | -36.88279 | 174.85801 | 6932 ft | 105 kts | 336° |
| 2026-05-07 10:17 | -36.87606 | 174.85453 | 7174 ft | 103 kts | 336° |
| 2026-05-07 10:17 | -36.86945 | 174.85093 | 7408 ft | 103 kts | 335° |
| 2026-05-07 10:17 | -36.86293 | 174.84727 | 7638 ft | 104 kts | 335° |
| 2026-05-07 10:18 | -36.85619 | 174.84423 | 7857 ft | 104 kts | 347° |
| 2026-05-07 10:18 | -36.84901 | 174.84384 | 8064 ft | 104 kts | 10° |
| 2026-05-07 10:18 | -36.84210 | 174.84662 | 8289 ft | 104 kts | 8° |
| 2026-05-07 10:18 | -36.83501 | 174.84792 | 8486 ft | 102 kts | 4° |
| 2026-05-07 10:19 | -36.82796 | 174.84920 | 8675 ft | 102 kts | 6° |
| 2026-05-07 10:19 | -36.82094 | 174.85075 | 8855 ft | 102 kts | 6° |
| 2026-05-07 10:19 | -36.81401 | 174.85235 | 9030 ft | 101 kts | 9° |
| 2026-05-07 10:19 | -36.80765 | 174.85588 | 9192 ft | 101 kts | 33° |
| 2026-05-07 10:20 | -36.80303 | 174.86278 | 9274 ft | 113 kts | 47° |
| 2026-05-07 10:20 | -36.79788 | 174.87117 | 9251 ft | 130 kts | 44° |
| 2026-05-07 10:20 | -36.79145 | 174.88011 | 9207 ft | 146 kts | 41° |
| 2026-05-07 10:20 | -36.78406 | 174.88951 | 9193 ft | 157 kts | 40° |
| 2026-05-07 10:21 | -36.77617 | 174.89947 | 9195 ft | 165 kts | 40° |
| 2026-05-07 10:21 | -36.76800 | 174.90990 | 9194 ft | 171 kts | 41° |
| 2026-05-07 10:21 | -36.75969 | 174.92088 | 9193 ft | 176 kts | 43° |
| 2026-05-07 10:21 | -36.75131 | 174.93225 | 9192 ft | 180 kts | 43° |
| 2026-05-07 10:22 | -36.74281 | 174.94396 | 9192 ft | 183 kts | 43° |
| 2026-05-07 10:22 | -36.73419 | 174.95575 | 9197 ft | 185 kts | 43° |
| 2026-05-07 10:22 | -36.72543 | 174.96757 | 9188 ft | 187 kts | 43° |
| 2026-05-07 10:22 | -36.71657 | 174.97942 | 9198 ft | 187 kts | 43° |
| 2026-05-07 10:23 | -36.70767 | 174.99138 | 9198 ft | 188 kts | 43° |
| 2026-05-07 10:23 | -36.69876 | 175.00336 | 9198 ft | 189 kts | 43° |
| 2026-05-07 10:23 | -36.68995 | 175.01525 | 9196 ft | 190 kts | 43° |
| 2026-05-07 10:23 | -36.68098 | 175.02733 | 9195 ft | 190 kts | 43° |
| 2026-05-07 10:24 | -36.67201 | 175.03939 | 9197 ft | 190 kts | 43° |
| 2026-05-07 10:24 | -36.66302 | 175.05152 | 9190 ft | 190 kts | 43° |
| 2026-05-07 10:24 | -36.65410 | 175.06368 | 9197 ft | 190 kts | 43° |
| 2026-05-07 10:24 | -36.64512 | 175.07577 | 9191 ft | 190 kts | 42° |
| 2026-05-07 10:25 | -36.63611 | 175.08785 | 9196 ft | 190 kts | 42° |
| 2026-05-07 10:25 | -36.62706 | 175.09991 | 9197 ft | 190 kts | 42° |
| 2026-05-07 10:25 | -36.61807 | 175.11195 | 9197 ft | 190 kts | 42° |
| 2026-05-07 10:25 | -36.60906 | 175.12400 | 9199 ft | 190 kts | 42° |
| 2026-05-07 10:26 | -36.60006 | 175.13607 | 9200 ft | 190 kts | 42° |
| 2026-05-07 10:26 | -36.59108 | 175.14815 | 9202 ft | 190 kts | 42° |
| 2026-05-07 10:26 | -36.58210 | 175.16021 | 9202 ft | 190 kts | 42° |
| 2026-05-07 10:26 | -36.57309 | 175.17226 | 9201 ft | 190 kts | 42° |
| 2026-05-07 10:27 | -36.56420 | 175.18415 | 9199 ft | 190 kts | 42° |
| 2026-05-07 10:27 | -36.55520 | 175.19616 | 9199 ft | 190 kts | 42° |
| 2026-05-07 10:27 | -36.54610 | 175.20810 | 9206 ft | 190 kts | 38° |
| 2026-05-07 10:27 | -36.53599 | 175.21865 | 9194 ft | 189 kts | 37° |
| 2026-05-07 10:28 | -36.52687 | 175.23039 | 9199 ft | 190 kts | 45° |
| 2026-05-07 10:28 | -36.51852 | 175.24313 | 9201 ft | 190 kts | 46° |
| 2026-05-07 10:28 | -36.51006 | 175.25585 | 9200 ft | 191 kts | 45° |
| 2026-05-07 10:28 | -36.50136 | 175.26827 | 9201 ft | 191 kts | 43° |
| 2026-05-07 10:29 | -36.49204 | 175.28001 | 9209 ft | 190 kts | 34° |
| 2026-05-07 10:29 | -36.48092 | 175.28877 | 9204 ft | 188 kts | 23° |
| 2026-05-07 10:29 | -36.46926 | 175.29596 | 9202 ft | 187 kts | 22° |
| 2026-05-07 10:30 | -36.44674 | 175.31142 | 9205 ft | 186 kts | 27° |
| 2026-05-07 10:30 | -36.43575 | 175.31995 | 9204 ft | 187 kts | 28° |
| 2026-05-07 10:30 | -36.42401 | 175.32647 | 9199 ft | 185 kts | 18° |
| 2026-05-07 10:30 | -36.41309 | 175.33481 | 9195 ft | 186 kts | 37° |
| 2026-05-07 10:31 | -36.40355 | 175.34573 | 9215 ft | 187 kts | 35° |
| 2026-05-07 10:31 | -36.39293 | 175.35515 | 9208 ft | 187 kts | 26° |
| 2026-05-07 10:31 | -36.38162 | 175.36301 | 9203 ft | 186 kts | 24° |
| 2026-05-07 10:31 | -36.37026 | 175.37061 | 9204 ft | 185 kts | 24° |
| 2026-05-07 10:32 | -36.35923 | 175.37850 | 9203 ft | 186 kts | 27° |
| 2026-05-07 10:32 | -36.34829 | 175.38708 | 9205 ft | 186 kts | 28° |
| 2026-05-07 10:32 | -36.33748 | 175.39593 | 9205 ft | 186 kts | 29° |
| 2026-05-07 10:32 | -36.32666 | 175.40475 | 9208 ft | 186 kts | 28° |
| 2026-05-07 10:33 | -36.31557 | 175.41358 | 9031 ft | 195 kts | 28° |
| 2026-05-07 10:33 | -36.30409 | 175.42253 | 8845 ft | 187 kts | 28° |
| 2026-05-07 10:33 | -36.29362 | 175.43090 | 8583 ft | 172 kts | 28° |
| 2026-05-07 10:33 | -36.28387 | 175.43867 | 8310 ft | 161 kts | 27° |
| 2026-05-07 10:34 | -36.27468 | 175.44594 | 8029 ft | 152 kts | 27° |
| 2026-05-07 10:34 | -36.26586 | 175.45283 | 7737 ft | 147 kts | 27° |
| 2026-05-07 10:34 | -36.25735 | 175.45949 | 7441 ft | 142 kts | 27° |
| 2026-05-07 10:34 | -36.24907 | 175.46593 | 7140 ft | 140 kts | 27° |
| 2026-05-07 10:35 | -36.24093 | 175.47227 | 6844 ft | 137 kts | 27° |
| 2026-05-07 10:35 | -36.23299 | 175.47858 | 6535 ft | 134 kts | 31° |
| 2026-05-07 10:35 | -36.22774 | 175.48851 | 5861 ft | 156 kts | 75° |
| 2026-05-07 10:35 | -36.23111 | 175.50221 | 5110 ft | 182 kts | 131° |
| 2026-05-07 10:36 | -36.24234 | 175.50742 | 4785 ft | 172 kts | 188° |
| 2026-05-07 10:36 | -36.25229 | 175.50013 | 4318 ft | 170 kts | 240° |
| 2026-05-07 10:36 | -36.25422 | 175.48667 | 3917 ft | 159 kts | 295° |
| 2026-05-07 10:36 | -36.24673 | 175.47818 | 3554 ft | 145 kts | 352° |
| 2026-05-07 10:37 | -36.23753 | 175.48122 | 3275 ft | 137 kts | 39° |
| 2026-05-07 10:37 | -36.23309 | 175.49075 | 3135 ft | 122 kts | 74° |
| 2026-05-07 10:37 | -36.23413 | 175.50055 | 2840 ft | 118 kts | 101° |
| 2026-05-07 10:37 | -36.23686 | 175.51078 | 2211 ft | 125 kts | 100° |
| 2026-05-07 10:38 | -36.23985 | 175.52050 | 1749 ft | 121 kts | 112° |
| 2026-05-07 10:38 | -36.24613 | 175.52779 | 1212 ft | 127 kts | 148° |
| 2026-05-07 10:38 | -36.25490 | 175.52930 | 767 ft | 138 kts | 193° |
| 2026-05-07 10:38 | -36.26160 | 175.52207 | 743 ft | 132 kts | 250° |
| 2026-05-07 10:39 | -36.26183 | 175.51125 | 706 ft | 119 kts | 303° |
| 2026-05-07 10:39 | -36.25846 | 175.50277 | 597 ft | 107 kts | 299° |
| 2026-05-07 10:39 | -36.25638 | 175.49399 | 467 ft | 107 kts | 296° |
| 2026-05-07 10:39 | -36.25382 | 175.48573 | 308 ft | 99 kts | 311° |
| 2026-05-07 10:40 | -36.24995 | 175.47889 | 195 ft | 100 kts | 315° |
| 2026-05-07 10:40 | -36.24421 | 175.47612 | 378 ft | 90 kts | 14° |
| 2026-05-07 10:40 | -36.23875 | 175.47997 | 412 ft | 91 kts | 34° |
| 2026-05-07 10:40 | -36.23397 | 175.48510 | 421 ft | 92 kts | 45° |
| 2026-05-07 10:41 | -36.23266 | 175.49255 | 404 ft | 95 kts | 106° |
| 2026-05-07 10:41 | -36.23853 | 175.49700 | 364 ft | 117 kts | 175° |
| 2026-05-07 10:41 | -36.24519 | 175.49213 | 376 ft | 119 kts | 245° |
| 2026-05-07 10:41 | -36.24534 | 175.48218 | 318 ft | 113 kts | 283° |
| 2026-05-07 10:42 | -36.24387 | 175.47410 | 97 ft | 88 kts | 310° |
| 2026-05-07 10:42 | -36.24123 | 175.46869 | 15 ft | 58 kts | 308° |
| 2026-05-07 10:42 | -36.23995 | 175.46602 | 15 ft | 17 kts | 300° |
| 2026-05-07 10:42 | -36.23980 | 175.46569 | 14 ft | 0 kts | 295° |